Time;durP1;ratioP1;P1;durP2;ratioP2;P2;SDS_P1;SDS_P2;PMS_P1;PMS_P2;Temp;Humidity;BMP_temperature;BMP_pressure;BME280_temperature;BME280_humidity;BME280_pressure;Samples;Min_cycle;Max_cycle;Signal;HPM_P1;HPM_P2
2022/03/24 00:00:31;;;;;;;59.65;40.70;;;;;;;6.17;nan;102947.09;5112780;28;20062;-52
2022/03/24 00:02:56;;;;;;;55.78;39.67;;;;;;;6.16;nan;102941.00;5111544;28;20117;-52
2022/03/24 00:05:22;;;;;;;56.72;40.67;;;;;;;6.11;nan;102942.66;5111179;28;20476;-52
2022/03/24 00:07:47;;;;;;;55.30;40.42;;;;;;;6.06;nan;102939.06;5111678;28;20529;-52
2022/03/24 00:10:13;;;;;;;58.33;40.00;;;;;;;6.03;nan;102936.41;5111686;28;20032;-56
2022/03/24 00:12:39;;;;;;;61.47;40.83;;;;;;;5.98;nan;102932.78;5112643;28;20032;-55
2022/03/24 00:15:05;;;;;;;58.40;40.35;;;;;;;5.96;nan;102936.22;5111290;28;20454;-54
2022/03/24 00:17:31;;;;;;;62.78;41.15;;;;;;;5.81;nan;102939.38;5110959;28;20051;-55
2022/03/24 00:19:57;;;;;;;62.80;41.50;;;;;;;5.79;nan;102932.38;5094427;28;20130;-58
2022/03/24 00:22:23;;;;;;;62.75;42.22;;;;;;;5.84;nan;102933.38;5112625;28;20036;-55
2022/03/24 00:24:48;;;;;;;60.97;41.72;;;;;;;5.81;nan;102930.69;5112694;28;20032;-52
2022/03/24 00:27:15;;;;;;;60.88;41.88;;;;;;;5.79;nan;102932.38;5112526;28;20095;-53
2022/03/24 00:29:41;;;;;;;63.85;43.20;;;;;;;5.35;nan;102866.13;5111364;28;20126;-56
2022/03/24 00:32:06;;;;;;;57.95;41.92;;;;;;;5.70;nan;102922.59;5111239;28;20593;-56
2022/03/24 00:34:31;;;;;;;66.28;42.58;;;;;;;5.31;nan;102857.34;5112011;28;20445;-55
2022/03/24 00:36:57;;;;;;;57.47;41.45;;;;;;;5.52;nan;102910.03;5111277;28;20077;-53
2022/03/24 00:39:22;;;;;;;64.32;43.28;;;;;;;5.62;nan;102932.91;5112326;28;20023;-56
2022/03/24 00:41:48;;;;;;;60.22;41.75;;;;;;;5.59;nan;102929.34;5112435;28;20043;-53
2022/03/24 00:44:13;;;;;;;62.33;43.00;;;;;;;5.57;nan;102931.06;5112437;28;20035;-55
2022/03/24 00:46:38;;;;;;;62.45;42.42;;;;;;;5.13;nan;102854.38;5111977;28;20475;-53
2022/03/24 00:49:04;;;;;;;67.18;45.30;;;;;;;5.48;nan;102920.41;5114851;28;20053;-53
2022/03/24 00:51:29;;;;;;;61.90;43.05;;;;;;;5.44;nan;102921.19;5115060;28;20038;-57
2022/03/24 00:53:54;;;;;;;61.75;42.65;;;;;;;5.41;nan;102919.38;5116427;28;20028;-54
2022/03/24 00:56:20;;;;;;;63.75;44.38;;;;;;;4.99;nan;102854.03;5116490;28;20032;-55
2022/03/24 00:58:45;;;;;;;68.82;44.83;;;;;;;5.23;nan;102899.81;5116130;28;20028;-58
2022/03/24 01:01:12;;;;;;;65.38;44.65;;;;;;;5.31;nan;102921.78;5115917;28;20032;-55
2022/03/24 01:03:41;;;;;;;62.20;42.47;;;;;;;4.86;nan;102846.81;5114777;28;20396;-55
2022/03/24 01:06:08;;;;;;;63.92;43.10;;;;;;;5.24;nan;102918.13;5114941;28;20057;-55
2022/03/24 01:08:35;;;;;;;64.15;43.63;;;;;;;5.15;nan;102909.22;5114810;28;20024;-56
2022/03/24 01:11:01;;;;;;;62.47;43.70;;;;;;;5.16;nan;102905.75;5115697;28;20426;-56
2022/03/24 01:13:28;;;;;;;67.80;43.80;;;;;;;4.73;nan;102839.53;5115748;28;20027;-54
2022/03/24 01:15:54;;;;;;;66.95;44.05;;;;;;;5.12;nan;102912.63;5114237;28;20518;-55
2022/03/24 01:18:20;;;;;;;67.88;43.13;;;;;;;4.73;nan;102839.53;5115708;28;20134;-56
2022/03/24 01:20:46;;;;;;;66.55;46.92;;;;;;;5.08;nan;102901.22;5115851;28;20060;-56
2022/03/24 01:23:12;;;;;;;66.13;46.60;;;;;;;5.02;nan;102908.91;5115599;28;20038;-55
2022/03/24 01:25:38;;;;;;;67.32;46.10;;;;;;;4.92;nan;102890.41;5115633;28;20043;-58
2022/03/24 01:28:04;;;;;;;64.50;44.20;;;;;;;4.99;nan;102913.22;5114389;28;20023;-56
2022/03/24 01:30:30;;;;;;;70.50;47.03;;;;;;;4.96;nan;102906.16;5115453;27;20032;-57
2022/03/24 01:32:55;;;;;;;68.60;47.08;;;;;;;4.86;nan;102883.34;5115269;28;20081;-51
2022/03/24 01:35:20;;;;;;;68.18;44.45;;;;;;;4.90;nan;102895.59;5115511;28;20111;-56
2022/03/24 01:37:46;;;;;;;66.38;45.67;;;;;;;4.85;nan;102889.38;5115519;28;20524;-55
2022/03/24 01:40:12;;;;;;;69.18;43.70;;;;;;;4.08;nan;102761.47;5115262;28;20035;-53
2022/03/24 01:42:39;;;;;;;71.65;45.72;;;;;;;4.39;nan;102821.31;5113939;28;20043;-54
2022/03/24 01:45:06;;;;;;;68.88;47.67;;;;;;;4.80;nan;102888.41;5115389;28;20076;-51
2022/03/24 01:47:32;;;;;;;69.40;45.25;;;;;;;4.74;nan;102876.94;5114834;28;20440;-53
2022/03/24 01:49:58;;;;;;;74.30;47.42;;;;;;;4.70;nan;102889.00;5115344;28;20084;-54
2022/03/24 01:52:25;;;;;;;67.45;45.45;;;;;;;4.36;nan;102805.59;5115115;28;20039;-55
2022/03/24 01:54:54;;;;;;;71.80;46.30;;;;;;;4.43;nan;102828.38;5115117;28;20077;-56
2022/03/24 01:57:21;;;;;;;64.38;44.47;;;;;;;4.70;nan;102862.94;5096766;28;20461;-56
2022/03/24 01:59:48;;;;;;;70.07;45.28;;;;;;;4.77;nan;102875.28;5114571;28;20039;-54
2022/03/24 02:02:14;;;;;;;69.57;45.85;;;;;;;4.36;nan;102816.03;5114882;28;20023;-52
2022/03/24 02:04:40;;;;;;;72.70;48.13;;;;;;;4.75;nan;102878.72;5114944;28;20520;-54
2022/03/24 02:07:07;;;;;;;73.55;48.58;;;;;;;4.72;nan;102881.25;5114941;27;20063;-52
2022/03/24 02:09:34;;;;;;;69.53;46.50;;;;;;;4.26;nan;102809.69;5114726;28;20114;-58
2022/03/24 02:12:01;;;;;;;72.60;48.20;;;;;;;4.65;nan;102884.53;5114623;28;20098;-54
2022/03/24 02:14:29;;;;;;;72.53;47.10;;;;;;;4.63;nan;102881.91;5114527;28;20503;-54
2022/03/24 02:16:55;;;;;;;68.88;46.65;;;;;;;4.59;nan;102880.06;5114520;28;20047;-53
2022/03/24 02:19:22;;;;;;;70.65;46.25;;;;;;;4.18;nan;102812.97;5114678;28;20032;-53
2022/03/24 02:21:50;;;;;;;66.72;46.40;;;;;;;4.52;nan;102870.34;5113370;28;20039;-56
2022/03/24 02:24:17;;;;;;;72.32;48.13;;;;;;;3.95;nan;102779.41;5114517;28;20368;-56
2022/03/24 02:26:44;;;;;;;74.25;48.58;;;;;;;4.47;nan;102871.94;5114227;28;20054;-55
2022/03/24 02:29:11;;;;;;;71.15;46.45;;;;;;;4.45;nan;102876.22;5114275;28;20066;-54
2022/03/24 02:31:38;;;;;;;74.97;48.13;;;;;;;4.02;nan;102797.78;5114463;28;20031;-53
2022/03/24 02:36:49;;;;;;;72.10;46.55;;;;;;;4.38;nan;102879.50;5114180;28;20494;-52
2022/03/24 02:39:14;;;;;;;75.13;49.22;;;;;;;4.35;nan;102874.25;5114093;28;20067;-56
2022/03/24 02:41:45;;;;;;;78.78;48.05;;;;;;;4.28;nan;102872.31;5112814;28;20028;-51
2022/03/24 02:44:14;;;;;;;73.07;48.58;;;;;;;4.04;nan;102824.75;5114347;28;20085;-54
2022/03/24 02:46:43;;;;;;;75.50;47.70;;;;;;;4.33;nan;102866.38;5113959;28;20130;-52
2022/03/24 02:49:09;;;;;;;71.38;46.67;;;;;;;4.24;nan;102863.53;5114408;28;20267;-50
2022/03/24 02:51:36;;;;;;;77.50;47.28;;;;;;;4.31;nan;102870.69;5114010;28;20040;-54
2022/03/24 02:54:03;;;;;;;69.78;47.45;;;;;;;3.87;nan;102791.34;5113919;28;20046;-54
2022/03/24 02:56:29;;;;;;;73.68;48.08;;;;;;;4.27;nan;102874.03;5113967;28;20389;-54
2022/03/24 02:58:54;;;;;;;76.68;48.03;;;;;;;4.24;nan;102870.47;5113732;28;20027;-54
2022/03/24 03:01:21;;;;;;;76.78;48.95;;;;;;;4.18;nan;102863.38;5113827;28;20039;-53
2022/03/24 03:03:46;;;;;;;78.50;46.35;;;;;;;3.82;nan;102800.75;5113782;28;20027;-56
2022/03/24 03:06:13;;;;;;;76.70;47.83;;;;;;;4.12;nan;102854.50;5113690;28;20028;-56
2022/03/24 03:08:38;;;;;;;75.15;47.05;;;;;;;3.80;nan;102804.16;5112320;28;20172;-53
2022/03/24 03:11:03;;;;;;;78.00;48.50;;;;;;;3.73;nan;102797.03;5112919;28;20118;-52
2022/03/24 03:13:29;;;;;;;77.00;46.30;;;;;;;4.10;nan;102864.91;5113471;28;20036;-54
2022/03/24 03:15:54;;;;;;;79.28;48.25;;;;;;;4.09;nan;102877.88;5111980;28;20049;-52
2022/03/24 03:18:19;;;;;;;77.43;48.72;;;;;;;3.74;nan;102807.50;5113469;28;20039;-57
2022/03/24 03:20:45;;;;;;;77.75;49.58;;;;;;;4.00;nan;102864.63;5113606;28;20042;-54
2022/03/24 03:23:10;;;;;;;72.20;45.40;;;;;;;3.97;nan;102861.09;5113213;28;20464;-54
2022/03/24 03:25:37;;;;;;;68.57;46.35;;;;;;;3.88;nan;102859.97;5113374;28;20058;-55
2022/03/24 03:28:02;;;;;;;74.28;47.65;;;;;;;3.91;nan;102865.28;5113418;28;20043;-55
2022/03/24 03:30:28;;;;;;;75.63;50.05;;;;;;;3.89;nan;102877.34;5113149;28;20092;-54
2022/03/24 03:32:53;;;;;;;81.43;49.17;;;;;;;3.86;nan;102872.94;5113153;28;20043;-53
2022/03/24 03:35:18;;;;;;;76.05;46.97;;;;;;;3.80;nan;102864.97;5112897;28;20039;-53
2022/03/24 03:37:44;;;;;;;76.20;46.22;;;;;;;3.63;nan;102826.28;5112876;28;20036;-54
2022/03/24 03:40:10;;;;;;;77.80;48.50;;;;;;;3.73;nan;102855.22;5094627;28;20532;-53
2022/03/24 03:42:35;;;;;;;77.95;48.30;;;;;;;3.51;nan;102805.09;5112891;28;20051;-48
2022/03/24 03:45:01;;;;;;;74.30;48.20;;;;;;;3.79;nan;102865.81;5112990;28;20035;-55
2022/03/24 03:47:27;;;;;;;79.93;49.38;;;;;;;3.80;nan;102862.34;5112880;28;20460;-53
2022/03/24 03:49:53;;;;;;;80.25;49.17;;;;;;;3.42;nan;102795.31;5112878;28;20035;-56
2022/03/24 03:52:18;;;;;;;81.80;48.80;;;;;;;3.70;nan;102864.69;5111557;28;20023;-54
2022/03/24 03:54:44;;;;;;;73.88;48.20;;;;;;;3.69;nan;102855.09;5111435;28;20039;-51
2022/03/24 03:57:10;;;;;;;81.93;49.33;;;;;;;3.42;nan;102810.94;5112738;28;20046;-52
2022/03/24 03:59:36;;;;;;;74.43;47.00;;;;;;;3.62;nan;102854.03;5094620;28;20400;-55
2022/03/24 04:02:01;;;;;;;81.95;49.35;;;;;;;3.59;nan;102845.28;5112730;28;20028;-55
2022/03/24 04:04:27;;;;;;;76.45;48.20;;;;;;;3.20;nan;102780.84;5112744;28;20193;-55
2022/03/24 04:06:53;;;;;;;76.68;47.40;;;;;;;3.29;nan;102809.72;5112446;28;20609;-54
2022/03/24 04:09:18;;;;;;;76.00;46.90;;;;;;;3.20;nan;102786.03;5112549;28;20027;-54
2022/03/24 04:11:43;;;;;;;74.05;47.17;;;;;;;3.59;nan;102856.53;5111497;28;20073;-56
2022/03/24 04:14:09;;;;;;;79.63;47.55;;;;;;;3.57;nan;102870.38;5112671;28;20108;-53
2022/03/24 04:16:34;;;;;;;78.25;47.15;;;;;;;3.17;nan;102785.94;5110981;28;20403;-55
2022/03/24 04:18:59;;;;;;;74.30;48.10;;;;;;;3.45;nan;102842.25;5111367;28;20080;-55
2022/03/24 04:21:25;;;;;;;75.53;47.03;;;;;;;3.44;nan;102847.44;5112394;28;20535;-53
2022/03/24 04:23:51;;;;;;;74.03;45.28;;;;;;;3.10;nan;102803.91;5116570;28;20044;-51
2022/03/24 04:26:16;;;;;;;75.15;46.38;;;;;;;3.42;nan;102857.78;5116844;27;20043;-53
2022/03/24 04:28:43;;;;;;;78.20;47.67;;;;;;;3.28;nan;102840.91;5115527;28;20036;-55
2022/03/24 04:31:09;;;;;;;72.72;47.22;;;;;;;3.27;nan;102839.13;5115281;28;20453;-54
2022/03/24 04:33:34;;;;;;;70.25;45.67;;;;;;;3.39;nan;102861.19;5115414;28;20110;-53
2022/03/24 04:36:00;;;;;;;75.25;47.17;;;;;;;3.12;nan;102815.28;5116253;28;20042;-51
2022/03/24 04:38:26;;;;;;;73.05;45.63;;;;;;;3.29;nan;102861.78;5116661;28;20028;-55
2022/03/24 04:40:53;;;;;;;73.53;47.20;;;;;;;3.42;nan;102863.88;5115418;28;20027;-54
2022/03/24 04:43:18;;;;;;;77.45;47.10;;;;;;;3.36;nan;102858.50;5116316;28;20066;-51
2022/03/24 04:45:44;;;;;;;76.47;47.47;;;;;;;2.96;nan;102790.53;5116115;28;20063;-55
2022/03/24 04:48:10;;;;;;;72.75;45.60;;;;;;;2.05;nan;102643.88;5116119;27;20032;-53
2022/03/24 04:50:35;;;;;;;74.90;47.22;;;;;;;2.99;nan;102814.03;5116167;28;20105;-53
2022/03/24 04:53:01;;;;;;;79.43;44.42;;;;;;;3.18;nan;102837.13;5115217;28;20034;-55
2022/03/24 04:55:26;;;;;;;73.68;46.50;;;;;;;3.17;nan;102850.13;5114552;28;20038;-52
2022/03/24 04:57:52;;;;;;;72.68;46.95;;;;;;;2.79;nan;102789.13;5116194;28;20112;-54
2022/03/24 05:00:18;;;;;;;75.35;45.58;;;;;;;3.20;nan;102881.44;5116406;28;20043;-54
2022/03/24 05:02:44;;;;;;;74.72;44.15;;;;;;;2.74;nan;102793.31;5114989;28;20112;-57
2022/03/24 05:05:10;;;;;;;76.75;47.75;;;;;;;3.13;nan;102858.66;5114549;28;20028;-56
2022/03/24 05:07:36;;;;;;;74.85;48.00;;;;;;;3.07;nan;102850.66;5115872;28;20035;-51
2022/03/24 05:10:02;;;;;;;73.90;45.90;;;;;;;2.97;nan;102849.53;5114834;28;20118;-51
2022/03/24 05:12:27;;;;;;;75.18;46.13;;;;;;;3.08;nan;102863.75;5115832;28;20471;-54
2022/03/24 05:14:53;;;;;;;77.18;47.17;;;;;;;3.06;nan;102865.41;5097429;28;20040;-55
2022/03/24 05:17:18;;;;;;;74.38;46.50;;;;;;;3.02;nan;102860.06;5115594;28;20058;-53
2022/03/24 05:19:44;;;;;;;76.80;46.80;;;;;;;3.03;nan;102862.72;5115698;28;20035;-55
2022/03/24 05:22:10;;;;;;;77.75;46.60;;;;;;;2.95;nan;102866.78;5115859;28;20036;-53
2022/03/24 05:24:37;;;;;;;64.78;44.22;;;;;;;2.54;nan;102787.50;5114459;28;20039;-52
2022/03/24 05:27:03;;;;;;;68.07;44.42;;;;;;;2.89;nan;102856.19;5115467;28;20540;-55
2022/03/24 05:29:28;;;;;;;73.07;46.70;;;;;;;2.97;nan;102872.94;5115498;28;20035;-54
2022/03/24 05:31:54;;;;;;;76.18;45.53;;;;;;;2.93;nan;102876.28;5115423;28;20407;-56
2022/03/24 05:34:19;;;;;;;71.47;46.38;;;;;;;2.86;nan;102858.69;5113381;28;20071;-52
2022/03/24 05:36:45;;;;;;;76.60;46.25;;;;;;;2.53;nan;102801.34;5115567;28;20034;-50
2022/03/24 05:39:10;;;;;;;77.72;45.97;;;;;;;2.54;nan;102803.09;5115453;28;20043;-52
2022/03/24 05:41:36;;;;;;;85.13;47.03;;;;;;;2.60;nan;102811.09;5114267;28;20039;-54
2022/03/24 05:44:04;;;;;;;76.53;46.40;;;;;;;2.97;nan;102880.75;5115329;28;20028;-51
2022/03/24 05:46:39;;;;;;;68.68;44.28;;;;;;;2.99;nan;102875.56;5115020;28;20032;-54
2022/03/24 05:49:06;;;;;;;73.05;46.88;;;;;;;2.99;nan;102884.25;5113914;28;20032;-53
2022/03/24 05:51:32;;;;;;;77.65;46.45;;;;;;;3.07;nan;102887.09;5114105;28;20054;-54
2022/03/24 05:53:57;;;;;;;73.00;45.17;;;;;;;2.71;nan;102816.63;5113941;28;20422;-53
2022/03/24 05:56:22;;;;;;;80.20;46.85;;;;;;;3.10;nan;102889.78;5096719;28;20039;-53
2022/03/24 05:58:48;;;;;;;74.22;46.45;;;;;;;2.64;nan;102802.56;5115006;28;20040;-53
2022/03/24 06:01:15;;;;;;;75.47;48.00;;;;;;;2.81;nan;102822.16;5113833;28;20028;-54
2022/03/24 06:03:44;;;;;;;78.63;46.33;;;;;;;3.21;nan;102883.22;5114825;27;20071;-54
2022/03/24 06:06:10;;;;;;;85.55;48.17;;;;;;;2.93;nan;102850.25;5114925;28;20043;-53
2022/03/24 06:08:35;;;;;;;71.53;45.28;;;;;;;2.92;nan;102826.81;5113613;28;20084;-54
2022/03/24 06:11:01;;;;;;;74.53;44.95;;;;;;;2.97;nan;102820.91;5114698;28;20127;-52
2022/03/24 06:13:27;;;;;;;73.22;45.10;;;;;;;2.99;nan;102827.03;5096363;28;20119;-54
2022/03/24 06:15:53;;;;;;;74.53;46.05;;;;;;;3.41;nan;102890.75;5113347;28;20067;-53
2022/03/24 06:18:20;;;;;;;73.20;47.22;;;;;;;3.54;nan;102880.69;5114759;28;20063;-54
2022/03/24 06:20:45;;;;;;;69.78;45.53;;;;;;;3.63;nan;102893.97;5114489;28;20131;-55
2022/03/24 06:23:10;;;;;;;70.65;46.92;;;;;;;3.40;nan;102836.03;5114514;27;20119;-55
2022/03/24 06:25:37;;;;;;;65.25;42.85;;;;;;;3.39;nan;102816.06;5114187;28;20451;-55
2022/03/24 06:28:04;;;;;;;68.32;43.67;;;;;;;3.67;nan;102849.84;5114301;28;20126;-54
2022/03/24 06:30:30;;;;;;;70.53;43.42;;;;;;;3.93;nan;102892.25;5114245;28;20031;-51
2022/03/24 06:32:56;;;;;;;69.95;42.45;;;;;;;4.02;nan;102889.88;5113140;28;20028;-55
2022/03/24 06:35:22;;;;;;;72.00;44.05;;;;;;;3.77;nan;102817.09;5113873;28;20024;-52
2022/03/24 06:37:48;;;;;;;68.97;42.17;;;;;;;4.33;nan;102879.41;5113797;27;20096;-55
2022/03/24 06:40:16;;;;;;;75.88;48.40;;;;;;;4.60;nan;102896.59;5112931;28;20486;-55
2022/03/24 06:42:42;;;;;;;66.38;44.80;;;;;;;4.90;nan;102876.47;5096025;28;20031;-54
2022/03/24 06:45:10;;;;;;;65.03;44.00;;;;;;;4.82;nan;102807.53;5113206;28;20479;-53
2022/03/24 06:47:35;;;;;;;62.33;43.60;;;;;;;5.62;nan;102879.78;5113358;28;20122;-49
2022/03/24 06:50:01;;;;;;;61.65;41.92;;;;;;;5.89;nan;102879.47;5113877;28;20201;-53
2022/03/24 06:52:26;;;;;;;64.38;41.20;;;;;;;6.08;nan;102868.50;5113803;28;20066;-55
2022/03/24 06:54:51;;;;;;;59.53;41.03;;;;;;;6.41;nan;102889.13;5114128;28;20534;-53
2022/03/24 06:57:17;;;;;;;64.00;43.88;;;;;;;6.62;nan;102899.97;5113834;28;20546;-54
2022/03/24 06:59:43;;;;;;;59.35;43.45;;;;;;;6.68;nan;102873.91;5112436;28;20376;-51
2022/03/24 07:02:09;;;;;;;59.58;42.20;;;;;;;6.88;nan;102880.31;5112711;28;20474;-52
2022/03/24 07:04:35;;;;;;;59.97;41.15;;;;;;;7.16;nan;102878.97;5112408;28;20039;-51
2022/03/24 07:07:00;;;;;;;61.53;41.10;;;;;;;7.16;nan;102837.97;5095250;28;20482;-54
2022/03/24 07:09:26;;;;;;;59.75;40.85;;;;;;;7.79;nan;102873.69;5113496;28;20028;-54
2022/03/24 07:11:51;;;;;;;53.25;39.38;;;;;;;8.37;nan;102904.06;5113600;28;20092;-56
2022/03/24 07:14:17;;;;;;;52.30;38.60;;;;;;;8.47;nan;102835.91;5113403;28;20101;-51
2022/03/24 07:16:43;;;;;;;56.17;38.92;;;;;;;8.92;nan;102839.72;5113271;28;20047;-54
2022/03/24 07:19:09;;;;;;;53.63;36.28;;;;;;;9.82;nan;102910.25;5113597;28;20031;-53
2022/03/24 07:21:35;;;;;;;79.50;39.08;;;;;;;9.97;nan;102859.44;5113385;28;20027;-56
2022/03/24 07:24:01;;;;;;;63.50;37.45;;;;;;;10.77;nan;102919.22;5113075;28;20035;-54
2022/03/24 07:26:26;;;;;;;90.53;39.42;;;;;;;11.14;nan;102884.03;5109114;28;20086;-55
2022/03/24 07:28:51;;;;;;;134.35;44.75;;;;;;;11.76;nan;102929.56;5112037;28;20040;-52
2022/03/24 07:31:19;;;;;;;76.13;37.22;;;;;;;12.06;nan;102914.47;5111697;28;20390;-56
2022/03/24 07:33:44;;;;;;;49.33;34.53;;;;;;;12.79;nan;102959.75;5112061;28;20130;-56
2022/03/24 07:36:10;;;;;;;43.40;33.88;;;;;;;12.88;nan;102898.88;5113050;28;20432;-56
2022/03/24 07:38:35;;;;;;;70.43;37.08;;;;;;;13.50;nan;102962.63;5112363;28;20127;-58
2022/03/24 07:41:01;;;;;;;52.60;35.63;;;;;;;13.50;nan;102906.19;5112962;28;20111;-55
2022/03/24 07:43:28;;;;;;;44.35;33.33;;;;;;;13.96;nan;102952.38;5112826;27;20028;-56
2022/03/24 07:45:53;;;;;;;41.72;33.95;;;;;;;14.27;nan;102981.09;5112905;28;20134;-55
2022/03/24 07:48:25;;;;;;;43.70;35.78;;;;;;;14.49;nan;102974.63;5113029;28;20526;-57
2022/03/24 07:50:51;;;;;;;39.67;32.72;;;;;;;14.25;nan;102943.16;5111814;28;20377;-56
2022/03/24 07:53:32;;;;;;;41.38;34.35;;;;;;;14.90;nan;102997.84;5111597;28;20641;-50
2022/03/24 07:55:58;;;;;;;41.05;32.67;;;;;;;15.37;nan;102991.72;5112741;28;20104;-50
2022/03/24 07:58:24;;;;;;;42.63;33.63;;;;;;;;;;5111172;28;20031;-53
2022/03/24 08:00:49;;;;;;;43.08;34.72;;;;;;;15.95;nan;103002.13;5112697;28;20023;-51
2022/03/24 08:03:19;;;;;;;44.78;32.83;;;;;;;16.19;nan;103006.94;5112664;28;20035;-49
2022/03/24 08:05:46;;;;;;;45.55;33.38;;;;;;;16.07;nan;103007.19;5112371;28;20035;-54
2022/03/24 08:08:12;;;;;;;42.83;33.58;;;;;;;16.06;nan;103002.78;5112648;28;20035;-56
2022/03/24 08:10:41;;;;;;;43.05;34.47;;;;;;;16.21;nan;103003.31;5111101;28;20075;-51
2022/03/24 08:13:10;;;;;;;37.55;32.28;;;;;;;16.45;nan;103001.03;5111425;28;20032;-51
2022/03/24 08:15:37;;;;;;;42.55;32.67;;;;;;;16.49;nan;103014.22;5094235;28;20031;-51
2022/03/24 08:18:04;;;;;;;42.13;33.05;;;;;;;16.13;nan;102983.16;5112135;28;20047;-51
2022/03/24 08:20:30;;;;;;;37.33;31.15;;;;;;;16.03;nan;102969.19;5112281;28;20035;-54
2022/03/24 08:22:56;;;;;;;41.17;31.83;;;;;;;16.21;nan;102966.13;5110821;28;20075;-53
2022/03/24 08:25:21;;;;;;;39.03;32.05;;;;;;;16.57;nan;103019.41;5112113;28;20077;-55
2022/03/24 08:27:47;;;;;;;40.88;32.03;;;;;;;16.60;nan;103014.03;5112273;28;20035;-53
2022/03/24 08:30:13;;;;;;;37.83;30.70;;;;;;;17.30;nan;103005.19;5111262;28;20028;-48
2022/03/24 08:32:39;;;;;;;35.10;29.88;;;;;;;17.66;nan;103001.56;5111252;28;20058;-53
2022/03/24 08:35:05;;;;;;;38.03;31.40;;;;;;;17.27;nan;102973.31;5112375;28;20042;-53
2022/03/24 08:37:31;;;;;;;36.05;31.42;;;;;;;17.68;nan;103021.03;5112137;28;20024;-56
2022/03/24 08:39:56;;;;;;;37.20;30.23;;;;;;;17.68;nan;102970.44;5112794;28;20036;-53
2022/03/24 08:42:21;;;;;;;35.58;29.15;;;;;;;18.00;nan;102980.16;5112284;28;20031;-54
2022/03/24 08:44:47;;;;;;;31.75;27.42;;;;;;;;;;5111074;28;20036;-54
2022/03/24 08:47:12;;;;;;;32.70;26.53;;;;;;;18.54;nan;102965.16;5110929;28;20039;-54
2022/03/24 08:49:37;;;;;;;34.45;30.55;;;;;;;;;;5112112;28;20293;-54
2022/03/24 08:52:03;;;;;;;33.08;27.70;;;;;;;;;;5112036;28;20103;-53
2022/03/24 08:54:28;;;;;;;36.00;28.08;;;;;;;;;;5112022;28;20027;-53
2022/03/24 08:56:53;;;;;;;37.57;29.47;;;;;;;;;;5112367;28;20040;-55
2022/03/24 08:59:18;;;;;;;36.10;30.13;;;;;;;;;;5111967;28;20277;-53
2022/03/24 09:01:44;;;;;;;33.20;29.03;;;;;;;;;;5111926;28;20281;-53
2022/03/24 09:04:10;;;;;;;34.75;27.67;;;;;;;;;;5112172;28;20285;-53
2022/03/24 09:06:35;;;;;;;35.40;28.50;;;;;;;;;;5112085;28;20476;-56
2022/03/24 09:09:00;;;;;;;29.10;25.08;;;;;;;;;;5112864;28;20032;-55
2022/03/24 09:11:26;;;;;;;33.43;26.73;;;;;;;;;;5115970;28;20365;-56
2022/03/24 09:13:52;;;;;;;30.90;26.73;;;;;;;;;;5114744;28;20481;-53
2022/03/24 09:16:17;;;;;;;32.78;25.98;;;;;;;;;;5115608;28;20375;-56
2022/03/24 09:18:42;;;;;;;31.02;24.58;;;;;;;;;;5115456;28;20087;-52
2022/03/24 09:21:09;;;;;;;29.93;24.23;;;;;;;;;;5115602;28;20050;-53
2022/03/24 09:23:34;;;;;;;28.88;25.77;;;;;;;;;;5115392;28;20269;-52
2022/03/24 09:26:00;;;;;;;28.27;23.67;;;;;;;;;;5115391;28;20028;-53
2022/03/24 09:28:26;;;;;;;23.70;21.10;;;;;;;;;;5115690;28;20031;-56
2022/03/24 09:30:54;;;;;;;27.33;21.23;;;;;;;;;;5115488;28;20035;-54
2022/03/24 09:33:20;;;;;;;28.58;20.98;;;;;;;22.20;nan;103051.59;5115422;28;20032;-55
2022/03/24 09:35:46;;;;;;;22.23;19.92;;;;;;;22.46;nan;103036.97;5115346;28;20107;-53
2022/03/24 09:38:11;;;;;;;19.20;16.60;;;;;;;22.35;nan;103018.69;5115330;28;20120;-57
2022/03/24 09:40:37;;;;;;;21.13;18.38;;;;;;;22.26;nan;103054.00;5115448;28;20055;-52
2022/03/24 09:43:04;;;;;;;20.10;16.98;;;;;;;22.35;nan;103041.97;5115330;27;20031;-55
2022/03/24 09:45:30;;;;;;;19.58;17.55;;;;;;;21.66;nan;103054.91;5115170;28;20063;-57
2022/03/24 09:47:56;;;;;;;22.50;19.83;;;;;;;21.81;nan;103010.47;5113879;28;20140;-54
2022/03/24 09:50:22;;;;;;;26.52;21.65;;;;;;;22.43;nan;103058.56;5113731;28;20048;-56
2022/03/24 09:52:49;;;;;;;24.85;21.02;;;;;;;22.19;nan;103017.66;5114950;28;20035;-56
2022/03/24 09:55:16;;;;;;;23.25;20.88;;;;;;;22.57;nan;103047.16;5115257;28;20110;-54
2022/03/24 09:57:43;;;;;;;25.92;20.92;;;;;;;22.48;nan;102989.44;5113930;28;20057;-56
2022/03/24 10:00:09;;;;;;;23.58;21.00;;;;;;;23.06;nan;103046.53;5115115;28;20036;-55
2022/03/24 10:02:34;;;;;;;24.63;22.02;;;;;;;23.25;nan;103047.38;5113599;28;20036;-51
2022/03/24 10:05:03;;;;;;;27.67;22.95;;;;;;;22.96;nan;102980.81;5114901;28;20080;-56
2022/03/24 10:07:33;;;;;;;26.85;21.67;;;;;;;23.48;nan;103046.22;5113474;28;20152;-55
2022/03/24 10:10:01;;;;;;;26.80;22.25;;;;;;;23.47;nan;102982.66;5114992;28;20036;-55
2022/03/24 10:12:33;;;;;;;27.30;21.52;;;;;;;;;;5114781;28;20524;-53
2022/03/24 10:15:04;;;;;;;28.42;22.73;;;;;;;;;;5114663;28;20173;-55
2022/03/24 10:17:30;;;;;;;25.52;22.85;;;;;;;;;;5114664;28;20071;-57
2022/03/24 10:20:06;;;;;;;25.73;22.77;;;;;;;;;;5114150;28;20043;-57
2022/03/24 10:22:31;;;;;;;24.90;22.33;;;;;;;;;;5114737;28;20039;-55
2022/03/24 10:24:57;;;;;;;28.63;24.55;;;;;;;;;;5114630;28;20156;-56
2022/03/24 10:27:26;;;;;;;27.05;24.35;;;;;;;;;;5114392;28;20084;-51
2022/03/24 10:29:54;;;;;;;28.48;23.23;;;;;;;;;;5114437;28;20507;-56
2022/03/24 10:32:19;;;;;;;25.08;22.27;;;;;;;;;;5113965;28;20433;-58
2022/03/24 10:34:48;;;;;;;26.75;22.08;;;;;;;;;;5114530;28;20043;-53
2022/03/24 10:37:20;;;;;;;24.17;21.52;;;;;;;;;;5114589;28;20051;-55
2022/03/24 10:39:59;;;;;;;21.80;19.52;;;;;;;;;;5113311;28;20042;-54
2022/03/24 10:42:26;;;;;;;24.85;21.48;;;;;;;;;;5112697;28;20027;-52
2022/03/24 10:45:00;;;;;;;27.65;21.90;;;;;;;;;;5113798;28;20054;-54
2022/03/24 10:47:35;;;;;;;23.40;20.88;;;;;;;;;;5113786;28;20547;-53
2022/03/24 10:50:18;;;;;;;23.77;21.15;;;;;;;;;;5114074;28;20552;-56
2022/03/24 10:52:43;;;;;;;22.63;20.27;;;;;;;;;;5112717;28;20035;-57
2022/03/24 10:55:08;;;;;;;22.20;19.60;;;;;;;;;;5113862;28;20081;-54
2022/03/24 10:57:35;;;;;;;22.13;19.33;;;;;;;;;;5113688;28;20051;-57
2022/03/24 11:00:03;;;;;;;23.45;19.63;;;;;;;;;;5113841;28;20344;-53
2022/03/24 11:02:29;;;;;;;23.27;19.38;;;;;;;;;;5113785;28;20399;-56
2022/03/24 11:04:58;;;;;;;21.33;19.08;;;;;;;;;;5113932;28;20035;-57
2022/03/24 11:07:24;;;;;;;22.10;19.75;;;;;;;;;;5113478;28;20059;-56
2022/03/24 11:09:49;;;;;;;22.55;19.85;;;;;;;;;;5112234;28;20153;-55
2022/03/24 11:12:27;;;;;;;21.90;19.53;;;;;;;;;;5112187;28;20467;-55
2022/03/24 11:14:54;;;;;;;23.75;21.20;;;;;;;;;;5113614;28;20293;-56
2022/03/24 11:17:24;;;;;;;25.63;20.52;;;;;;;;;;5113244;28;20093;-59
2022/03/24 11:19:54;;;;;;;20.60;18.60;;;;;;;;;;5113327;28;20072;-55
2022/03/24 11:22:20;;;;;;;22.30;20.00;;;;;;;;;;5113443;28;20500;-57
2022/03/24 11:24:45;;;;;;;22.55;19.25;;;;;;;;;;5113338;28;20024;-56
2022/03/24 11:27:10;;;;;;;23.50;18.63;;;;;;;;;;5113556;28;20434;-55
2022/03/24 11:29:36;;;;;;;22.85;19.48;;;;;;;;;;5113331;28;20274;-58
2022/03/24 11:32:01;;;;;;;22.92;20.02;;;;;;;;;;5112809;28;20107;-54
2022/03/24 11:34:27;;;;;;;26.02;20.50;;;;;;;;;;5113069;28;20053;-61
2022/03/24 11:36:52;;;;;;;25.05;19.98;;;;;;;;;;5113147;28;20023;-54
2022/03/24 11:39:17;;;;;;;22.85;20.42;;;;;;;;;;5113341;28;20077;-56
2022/03/24 11:41:49;;;;;;;28.27;23.25;;;;;;;;;;5113127;28;20062;-59
2022/03/24 11:44:19;;;;;;;27.27;18.77;;;;;;;;;;5113218;28;20035;-57
2022/03/24 11:46:59;;;;;;;24.40;18.55;;;;;;;;;;5112708;28;20081;-57
2022/03/24 11:49:25;;;;;;;21.42;17.60;;;;;;;;;;5112775;28;20080;-58
2022/03/24 11:52:10;;;;;;;23.90;18.95;;;;;;;;;;5111791;28;20024;-56
2022/03/24 11:54:37;;;;;;;23.45;18.63;;;;;;;;;;5112791;28;20079;-60
2022/03/24 11:57:21;;;;;;;20.33;18.17;;;;;;;;;;5112659;28;20540;-56
2022/03/24 11:59:46;;;;;;;25.55;19.15;;;;;;;;;;5112537;28;20514;-57
2022/03/24 12:02:15;;;;;;;23.83;17.85;;;;;;;;;;5112936;28;20063;-56